createdAt,value
2018-02-12T00:00:32.506Z,7.3
2018-02-12T00:01:32.857Z,7.3
2018-02-12T00:02:32.473Z,7.3
2018-02-12T00:03:32.802Z,7.3
2018-02-12T00:04:32.518Z,7.3
2018-02-12T00:05:32.205Z,7.3
2018-02-12T00:06:32.207Z,7.3
2018-02-12T00:07:32.259Z,7.3
2018-02-12T00:08:31.828Z,7.2
2018-02-12T00:09:31.790Z,7.2
2018-02-12T00:10:31.885Z,7.3
2018-02-12T00:11:31.631Z,7.2
2018-02-12T00:12:31.705Z,7.2
2018-02-12T00:13:31.560Z,7.2
2018-02-12T00:14:31.388Z,7.2
2018-02-12T00:15:31.530Z,7.2
2018-02-12T00:16:31.434Z,7.2
2018-02-12T00:17:31.591Z,7.2
2018-02-12T00:18:31.046Z,7.3
2018-02-12T00:19:31.197Z,7.2
2018-02-12T00:20:31.246Z,7.2
2018-02-12T00:21:30.967Z,7.3
2018-02-12T00:22:31.012Z,7.3
2018-02-12T00:23:30.624Z,7.2
2018-02-12T00:24:31.154Z,7.3
2018-02-12T00:25:31.013Z,7.3
2018-02-12T00:26:30.707Z,7.2
2018-02-12T00:27:30.434Z,7.3
2018-02-12T00:28:30.622Z,7.3
2018-02-12T00:29:30.476Z,7.3
2018-02-12T00:30:30.351Z,7.3
2018-02-12T00:31:30.580Z,7.3
2018-02-12T00:32:30.177Z,7.3
2018-02-12T00:33:30.151Z,7.3
2018-02-12T00:34:30.428Z,7.2
2018-02-12T00:35:30.511Z,7.3
2018-02-12T00:36:29.937Z,7.3
2018-02-12T00:37:30.180Z,7.3
2018-02-12T00:38:30.176Z,7.3
2018-02-12T00:39:29.903Z,7.3
2018-02-12T00:40:29.991Z,7.3
2018-02-12T00:41:29.831Z,7.3
2018-02-12T00:42:29.817Z,7.3
2018-02-12T00:43:29.655Z,7.3
2018-02-12T00:44:29.418Z,7.3
2018-02-12T00:45:29.623Z,7.3
2018-02-12T00:46:29.183Z,7.3
2018-02-12T00:47:29.043Z,7.3
2018-02-12T00:48:29.315Z,7.3
2018-02-12T00:49:29.022Z,7.3
2018-02-12T00:50:29.345Z,7.3
2018-02-12T00:51:29.294Z,7.3
2018-02-12T00:52:28.997Z,7.3
2018-02-12T00:53:29.298Z,7.3
2018-02-12T00:54:28.898Z,7.3
2018-02-12T00:55:28.618Z,7.3
2018-02-12T00:56:28.928Z,7.3
2018-02-12T00:57:28.600Z,7.3
2018-02-12T00:58:28.787Z,7.3
2018-02-12T00:59:28.652Z,7.2
2018-02-12T01:00:28.456Z,7.3
2018-02-12T01:01:28.242Z,7.3
2018-02-12T01:02:28.211Z,7.2
2018-02-12T01:03:28.068Z,7.2
2018-02-12T01:04:28.191Z,7.2
2018-02-12T01:05:28.141Z,7.2
2018-02-12T01:06:28.214Z,7.2
2018-02-12T01:07:28.857Z,7.2
2018-02-12T01:08:27.938Z,7.2
2018-02-12T01:09:27.977Z,7.2
2018-02-12T01:10:27.894Z,7.2
2018-02-12T01:11:28.222Z,7.2
2018-02-12T01:12:27.339Z,7.2
2018-02-12T01:13:27.388Z,7.2
2018-02-12T01:14:27.490Z,7.3
2018-02-12T01:15:27.460Z,7.2
2018-02-12T01:16:27.124Z,7.2
2018-02-12T01:17:27.257Z,7.2
2018-02-12T01:18:27.041Z,7.3
2018-02-12T01:19:27.161Z,7.2
2018-02-12T01:20:27.387Z,7.3
2018-02-12T01:21:26.932Z,7.3
2018-02-12T01:22:26.754Z,7.3
2018-02-12T01:23:27.007Z,7.3
2018-02-12T01:24:27.078Z,7.3
2018-02-12T01:25:26.878Z,7.3
2018-02-12T01:26:26.699Z,7.3
2018-02-12T01:27:26.524Z,7.3
2018-02-12T01:28:26.623Z,7.3
2018-02-12T01:29:26.483Z,7.3
2018-02-12T01:30:26.202Z,7.3
2018-02-12T01:31:26.341Z,7.3
2018-02-12T01:32:26.335Z,7.3
2018-02-12T01:33:26.214Z,7.3
2018-02-12T01:34:26.114Z,7.3
2018-02-12T01:35:26.420Z,7.3
2018-02-12T01:36:25.956Z,7.3
2018-02-12T01:37:25.889Z,7.3
2018-02-12T01:38:25.751Z,7.3
2018-02-12T01:39:26.020Z,7.2
2018-02-12T01:40:25.680Z,7.2
2018-02-12T01:41:25.685Z,7.2
2018-02-12T01:42:25.925Z,7.2
2018-02-12T01:43:25.829Z,7.2
2018-02-12T01:44:25.129Z,7.1
2018-02-12T01:45:25.734Z,7.2
2018-02-12T01:46:25.192Z,7.2
2018-02-12T01:47:25.191Z,7.2
2018-02-12T01:48:25.281Z,7.1
2018-02-12T01:49:25.106Z,7.2
2018-02-12T01:50:24.861Z,7.2
2018-02-12T01:51:24.948Z,7.2
2018-02-12T01:52:24.941Z,7.2
2018-02-12T01:53:25.202Z,7.2
2018-02-12T01:54:24.946Z,7.2
2018-02-12T01:55:24.829Z,7.2
2018-02-12T01:56:24.740Z,7.2
2018-02-12T01:57:24.868Z,7.1
2018-02-12T01:58:24.266Z,7.2
2018-02-12T01:59:24.534Z,7.1
2018-02-12T02:00:24.230Z,7.1
2018-02-12T02:01:24.408Z,7.2
2018-02-12T02:02:24.009Z,7.1
2018-02-12T02:03:24.027Z,7.2
2018-02-12T02:04:24.254Z,7.1
2018-02-12T02:05:23.939Z,7.1
2018-02-12T02:06:23.902Z,7.2
2018-02-12T02:07:24.013Z,7.2
2018-02-12T02:08:24.432Z,7.2
2018-02-12T02:09:23.724Z,7.2
2018-02-12T02:10:23.551Z,7.2
2018-02-12T02:11:23.319Z,7.3
2018-02-12T02:12:23.689Z,7.3
2018-02-12T02:13:23.695Z,7.2
2018-02-12T02:14:23.058Z,7.3
2018-02-12T02:15:23.218Z,7.3
2018-02-12T02:16:23.105Z,7.3
2018-02-12T02:17:23.307Z,7.3
2018-02-12T02:18:23.021Z,7.3
2018-02-12T02:19:23.018Z,7.3
2018-02-12T02:20:23.150Z,7.3
2018-02-12T02:21:22.691Z,7.3
2018-02-12T02:22:22.730Z,7.3
2018-02-12T02:23:22.885Z,7.3
2018-02-12T02:24:22.498Z,7.3
2018-02-12T02:25:22.616Z,7.3
2018-02-12T02:26:22.447Z,7.3
2018-02-12T02:27:22.469Z,7.3
2018-02-12T02:28:22.450Z,7.3
2018-02-12T02:29:22.263Z,7.3
2018-02-12T02:30:22.707Z,7.3
2018-02-12T02:31:22.240Z,7.3
2018-02-12T02:32:22.239Z,7.3
2018-02-12T02:33:22.634Z,7.3
2018-02-12T02:34:22.282Z,7.3
2018-02-12T02:35:22.025Z,7.3
2018-02-12T02:36:21.554Z,7.3
2018-02-12T02:37:21.969Z,7.3
2018-02-12T02:38:21.899Z,7.3
2018-02-12T02:39:21.565Z,7.3
2018-02-12T02:40:21.887Z,7.3
2018-02-12T02:41:22.003Z,7.3
2018-02-12T02:42:21.829Z,7.3
2018-02-12T02:43:21.422Z,7.4
2018-02-12T02:44:21.257Z,7.4
2018-02-12T02:45:21.045Z,7.4
2018-02-12T02:46:21.162Z,7.4
2018-02-12T02:47:21.160Z,7.4
2018-02-12T02:48:20.961Z,7.4
2018-02-12T02:49:20.981Z,7.4
2018-02-12T02:50:20.808Z,7.4
2018-02-12T02:51:20.700Z,7.4
2018-02-12T02:52:20.765Z,7.3
2018-02-12T02:53:20.759Z,7.4
2018-02-12T02:54:20.714Z,7.3
2018-02-12T02:55:20.434Z,7.3
2018-02-12T02:56:20.413Z,7.3
2018-02-12T02:57:20.190Z,7.4
2018-02-12T02:58:20.346Z,7.4
2018-02-12T02:59:20.147Z,7.4
2018-02-12T03:00:20.617Z,7.3
2018-02-12T03:01:20.050Z,7.4
2018-02-12T03:02:19.955Z,7.3
2018-02-12T03:03:20.115Z,7.4
2018-02-12T03:04:19.979Z,7.4
2018-02-12T03:05:19.999Z,7.4
2018-02-12T03:06:19.701Z,7.4
2018-02-12T03:07:19.523Z,7.4
2018-02-12T03:08:19.498Z,7.4
2018-02-12T03:09:19.713Z,7.4
2018-02-12T03:10:19.714Z,7.4
2018-02-12T03:11:20.030Z,7.4
2018-02-12T03:12:19.957Z,7.4
2018-02-12T03:13:19.191Z,7.4
2018-02-12T03:14:19.360Z,7.4
2018-02-12T03:15:19.186Z,7.4
2018-02-12T03:16:19.044Z,7.4
2018-02-12T03:17:18.805Z,7.4
2018-02-12T03:18:18.592Z,7.4
2018-02-12T03:19:18.865Z,7.4
2018-02-12T03:20:18.845Z,7.4
2018-02-12T03:21:18.684Z,7.4
2018-02-12T03:22:18.654Z,7.4
2018-02-12T03:23:18.700Z,7.4
2018-02-12T03:24:18.226Z,7.4
2018-02-12T03:25:18.425Z,7.4
2018-02-12T03:26:18.831Z,7.4
2018-02-12T03:27:18.150Z,7.4
2018-02-12T03:28:18.073Z,7.4
2018-02-12T03:29:18.163Z,7.4
2018-02-12T03:30:18.210Z,7.4
2018-02-12T03:31:17.859Z,7.4
2018-02-12T03:32:18.024Z,7.4
2018-02-12T03:33:17.739Z,7.4
2018-02-12T03:34:17.869Z,7.4
2018-02-12T03:35:17.792Z,7.4
2018-02-12T03:36:17.533Z,7.4
2018-02-12T03:37:18.049Z,7.4
2018-02-12T03:38:17.561Z,7.4
2018-02-12T03:39:17.370Z,7.4
2018-02-12T03:40:17.695Z,7.4
2018-02-12T03:41:17.374Z,7.4
2018-02-12T03:42:17.216Z,7.4
2018-02-12T03:43:17.019Z,7.4
2018-02-12T03:44:17.322Z,7.4
2018-02-12T03:45:17.285Z,7.4
2018-02-12T03:46:16.736Z,7.4
2018-02-12T03:47:17.178Z,7.4
2018-02-12T03:48:16.892Z,7.4
2018-02-12T03:49:16.743Z,7.4
2018-02-12T03:50:16.692Z,7.4
2018-02-12T03:51:16.591Z,7.4
2018-02-12T03:52:16.790Z,7.4
2018-02-12T03:53:16.561Z,7.3
2018-02-12T03:54:16.424Z,7.4
2018-02-12T03:55:16.554Z,7.3
2018-02-12T03:56:16.851Z,7.3
2018-02-12T03:57:16.127Z,7.3
2018-02-12T03:58:16.185Z,7.3
2018-02-12T03:59:16.714Z,7.3
2018-02-12T04:00:16.345Z,7.3
2018-02-12T04:01:16.247Z,7.3
2018-02-12T04:02:16.287Z,7.3
2018-02-12T04:03:16.065Z,7.3
2018-02-12T04:04:15.792Z,7.3
2018-02-12T04:05:16.218Z,7.3
2018-02-12T04:06:15.382Z,7.3
2018-02-12T04:07:15.368Z,7.3
2018-02-12T04:08:15.577Z,7.3
2018-02-12T04:09:15.229Z,7.3
2018-02-12T04:10:15.273Z,7.3
2018-02-12T04:11:15.332Z,7.3
2018-02-12T04:12:14.971Z,7.3
2018-02-12T04:13:14.913Z,7.3
2018-02-12T04:14:14.828Z,7.3
2018-02-12T04:15:14.838Z,7.3
2018-02-12T04:16:15.095Z,7.3
2018-02-12T04:17:14.799Z,7.3
2018-02-12T04:18:14.525Z,7.3
2018-02-12T04:19:14.680Z,7.3
2018-02-12T04:20:14.366Z,7.3
2018-02-12T04:21:14.961Z,7.3
2018-02-12T04:22:14.658Z,7.3
2018-02-12T04:23:14.266Z,7.3
2018-02-12T04:24:14.452Z,7.3
2018-02-12T04:25:14.223Z,7.3
2018-02-12T04:26:14.301Z,7.3
2018-02-12T04:27:14.691Z,7.3
2018-02-12T04:28:14.035Z,7.3
2018-02-12T04:29:14.071Z,7.3
2018-02-12T04:30:14.001Z,7.3
2018-02-12T04:31:14.678Z,7.3
2018-02-12T04:32:13.967Z,7.3
2018-02-12T04:33:14.079Z,7.3
2018-02-12T04:34:13.707Z,7.3
2018-02-12T04:35:13.909Z,7.3
2018-02-12T04:36:13.603Z,7.3
2018-02-12T04:37:13.321Z,7.3
2018-02-12T04:38:13.336Z,7.2
2018-02-12T04:39:13.264Z,7.3
2018-02-12T04:40:13.003Z,7.2
2018-02-12T04:41:13.374Z,7.3
2018-02-12T04:42:13.248Z,7.3
2018-02-12T04:43:12.984Z,7.3
2018-02-12T04:44:13.124Z,7.2
2018-02-12T04:45:12.875Z,7.3
2018-02-12T04:46:12.805Z,7.2
2018-02-12T04:47:12.802Z,7.2
2018-02-12T04:48:12.937Z,7.2
2018-02-12T04:49:12.604Z,7.2
2018-02-12T04:50:12.747Z,7.2
2018-02-12T04:51:12.758Z,7.2
2018-02-12T04:52:12.124Z,7.2
2018-02-12T04:53:12.148Z,7.2
2018-02-12T04:54:12.230Z,7.3
2018-02-12T04:55:12.360Z,7.2
2018-02-12T04:56:11.912Z,7.2
2018-02-12T04:57:12.044Z,7.2
2018-02-12T04:58:12.155Z,7.3
2018-02-12T04:59:12.206Z,7.2
2018-02-12T05:00:11.580Z,7.3
2018-02-12T05:01:11.817Z,7.2
2018-02-12T05:02:11.871Z,7.3
2018-02-12T05:03:12.008Z,7.3
2018-02-12T05:04:11.999Z,7.3
2018-02-12T05:05:11.898Z,7.3
2018-02-12T05:06:11.605Z,7.3
2018-02-12T05:07:11.572Z,7.3
2018-02-12T05:08:11.406Z,7.3
2018-02-12T05:09:11.449Z,7.3
2018-02-12T05:10:11.536Z,7.2
2018-02-12T05:11:11.170Z,7.3
2018-02-12T05:12:11.061Z,7.3
2018-02-12T05:13:11.135Z,7.3
2018-02-12T05:14:11.032Z,7.3
2018-02-12T05:15:10.892Z,7.3
2018-02-12T05:16:10.850Z,7.3
2018-02-12T05:17:11.168Z,7.3
2018-02-12T05:18:10.473Z,7.3
2018-02-12T05:19:10.526Z,7.3
2018-02-12T05:20:10.442Z,7.3
2018-02-12T05:21:10.563Z,7.3
2018-02-12T05:22:10.573Z,7.3
2018-02-12T05:23:10.649Z,7.3
2018-02-12T05:24:10.313Z,7.3
2018-02-12T05:25:09.976Z,7.3
2018-02-12T05:26:10.250Z,7.3
2018-02-12T05:27:10.043Z,7.3
2018-02-12T05:28:10.014Z,7.3
2018-02-12T05:29:10.449Z,7.3
2018-02-12T05:30:09.849Z,7.3
2018-02-12T05:31:09.702Z,7.3
2018-02-12T05:32:09.516Z,7.3
2018-02-12T05:33:09.845Z,7.3
2018-02-12T05:34:09.506Z,7.3
2018-02-12T05:35:09.691Z,7.3
2018-02-12T05:36:09.408Z,7.3
2018-02-12T05:37:09.614Z,7.3
2018-02-12T05:38:09.153Z,7
2018-02-12T05:39:09.040Z,6.4
2018-02-12T05:40:09.066Z,6
2018-02-12T05:41:09.229Z,5.7
2018-02-12T05:42:08.921Z,5.3
2018-02-12T05:43:09.292Z,5.1
2018-02-12T05:44:09.083Z,4.9
2018-02-12T05:45:08.888Z,4.8
2018-02-12T05:46:08.552Z,4.6
2018-02-12T05:47:08.806Z,4.5
2018-02-12T05:48:08.923Z,4.4
2018-02-12T05:49:08.353Z,4.3
2018-02-12T05:50:08.515Z,4.3
2018-02-12T05:51:08.207Z,4.1
2018-02-12T05:52:08.337Z,4.1
2018-02-12T05:53:08.750Z,3.9
2018-02-12T05:54:08.316Z,3.9
2018-02-12T05:55:08.167Z,3.9
2018-02-12T05:56:08.318Z,3.9
2018-02-12T05:57:07.931Z,3.9
2018-02-12T05:58:07.907Z,3.9
2018-02-12T05:59:07.887Z,3.8
2018-02-12T06:00:07.573Z,3.7
2018-02-12T06:01:07.934Z,3.7
2018-02-12T06:02:08.028Z,3.7
2018-02-12T06:03:07.746Z,3.6
2018-02-12T06:04:07.549Z,3.6
2018-02-12T06:05:07.238Z,3.6
2018-02-12T06:06:07.102Z,3.6
2018-02-12T06:07:07.311Z,3.6
2018-02-12T06:08:06.924Z,3.6
2018-02-12T06:09:07.089Z,3.6
2018-02-12T06:10:07.351Z,3.4
2018-02-12T06:11:06.985Z,3.4
2018-02-12T06:12:07.192Z,3.4
2018-02-12T06:13:06.928Z,3.4
2018-02-12T06:14:06.839Z,3.5
2018-02-12T06:15:06.665Z,3.6
2018-02-12T06:16:06.597Z,3.6
2018-02-12T06:17:06.508Z,3.6
2018-02-12T06:18:06.266Z,3.6
2018-02-12T06:19:06.630Z,3.6
2018-02-12T06:20:06.558Z,3.6
2018-02-12T06:21:06.362Z,3.6
2018-02-12T06:22:06.276Z,3.6
2018-02-12T06:23:06.019Z,3.6
2018-02-12T06:24:05.980Z,3.5
2018-02-12T06:25:06.410Z,3.6
2018-02-12T06:26:05.690Z,3.5
2018-02-12T06:27:05.822Z,3.6
2018-02-12T06:28:05.981Z,3.6
2018-02-12T06:29:06.062Z,3.6
2018-02-12T06:30:05.687Z,3.5
2018-02-12T06:31:05.693Z,3.6
2018-02-12T06:32:05.490Z,3.6
2018-02-12T06:33:05.326Z,3.5
2018-02-12T06:34:05.513Z,3.5
2018-02-12T06:35:05.571Z,3.5
2018-02-12T06:36:05.816Z,3.5
2018-02-12T06:37:05.185Z,3.5
2018-02-12T06:38:05.465Z,3.5
2018-02-12T06:39:05.719Z,3.5
2018-02-12T06:40:05.243Z,3.6
2018-02-12T06:41:04.743Z,3.5
2018-02-12T06:42:04.899Z,3.5
2018-02-12T06:43:04.867Z,3.6
2018-02-12T06:44:04.707Z,3.6
2018-02-12T06:45:04.609Z,3.7
2018-02-12T06:46:05.100Z,3.6
2018-02-12T06:47:04.734Z,3.6
2018-02-12T06:48:04.378Z,3.6
2018-02-12T06:49:04.608Z,3.7
2018-02-12T06:50:04.640Z,3.8
2018-02-12T06:51:04.604Z,3.8
2018-02-12T06:52:04.028Z,3.8
2018-02-12T06:53:04.049Z,3.8
2018-02-12T06:54:03.885Z,3.8
2018-02-12T06:55:04.578Z,3.8
2018-02-12T06:56:03.851Z,3.8
2018-02-12T06:57:03.956Z,3.8
2018-02-12T06:58:04.312Z,3.8
2018-02-12T06:59:03.700Z,3.8
2018-02-12T07:00:03.777Z,3.8
2018-02-12T07:01:03.521Z,3.8
2018-02-12T07:02:03.444Z,3.8
2018-02-12T07:03:03.548Z,3.8
2018-02-12T07:04:03.392Z,3.8
2018-02-12T07:05:03.420Z,3.9
2018-02-12T07:06:03.948Z,3.8
2018-02-12T07:07:03.060Z,3.8
2018-02-12T07:08:03.120Z,3.9
2018-02-12T07:09:02.933Z,3.9
2018-02-12T07:10:03.339Z,3.9
2018-02-12T07:11:02.599Z,3.9
2018-02-12T07:12:02.869Z,3.9
2018-02-12T07:13:03.117Z,3.9
2018-02-12T07:14:02.607Z,3.9
2018-02-12T07:15:03.165Z,3.9
2018-02-12T07:16:02.460Z,3.9
2018-02-12T07:17:02.507Z,3.9
2018-02-12T07:18:02.644Z,3.9
2018-02-12T07:19:02.461Z,3.9
2018-02-12T07:20:02.429Z,3.9
2018-02-12T07:21:02.232Z,3.9
2018-02-12T07:22:02.242Z,3.9
2018-02-12T07:23:01.970Z,3.9
2018-02-12T07:24:02.514Z,3.9
2018-02-12T07:25:02.131Z,3.9
2018-02-12T07:26:01.874Z,3.9
2018-02-12T07:27:02.017Z,3.9
2018-02-12T07:28:01.937Z,4
2018-02-12T07:29:01.545Z,4
2018-02-12T07:30:01.502Z,4.1
2018-02-12T07:31:01.553Z,4.1
2018-02-12T07:32:01.373Z,4.1
2018-02-12T07:33:01.726Z,4
2018-02-12T07:34:01.213Z,4.1
2018-02-12T07:35:01.592Z,4.1
2018-02-12T07:36:01.221Z,4.1
2018-02-12T07:37:01.483Z,4.1
2018-02-12T07:38:00.910Z,4.2
2018-02-12T07:39:00.981Z,4.1
2018-02-12T07:40:01.185Z,4.1
2018-02-12T07:41:00.630Z,4.1
2018-02-12T07:42:00.901Z,4.1
2018-02-12T07:43:00.994Z,4.1
2018-02-12T07:44:00.780Z,4.1
2018-02-12T07:45:00.712Z,4.1
2018-02-12T07:46:00.686Z,4.2
2018-02-12T07:47:00.322Z,4.1
2018-02-12T07:48:00.161Z,4.2
2018-02-12T07:49:00.227Z,4.2
2018-02-12T07:50:00.097Z,4.2
2018-02-12T07:51:00.252Z,4.3
2018-02-12T07:51:59.866Z,4.3
2018-02-12T07:52:59.781Z,4.3
2018-02-12T07:53:59.952Z,4.3
2018-02-12T07:54:59.967Z,4.3
2018-02-12T07:55:59.773Z,4.3
2018-02-12T07:56:59.632Z,4.3
2018-02-12T07:57:59.568Z,4.3
2018-02-12T07:58:59.388Z,4.3
2018-02-12T07:59:59.874Z,4.4
2018-02-12T08:00:59.669Z,4.4
2018-02-12T08:01:59.514Z,4.4
2018-02-12T08:02:59.139Z,4.4
2018-02-12T08:03:59.435Z,4.4
2018-02-12T08:04:59.094Z,4.4
2018-02-12T08:05:59.394Z,4.4
2018-02-12T08:06:58.920Z,4.4
2018-02-12T08:07:59.014Z,4.5
2018-02-12T08:08:59.084Z,4.5
2018-02-12T08:09:58.533Z,4.5
2018-02-12T08:10:58.498Z,4.4
2018-02-12T08:11:58.854Z,4.4
2018-02-12T08:12:58.561Z,4.4
2018-02-12T08:13:58.419Z,4.4
2018-02-12T08:14:58.526Z,4.4
2018-02-12T08:15:58.589Z,4.4
2018-02-12T08:16:58.379Z,4.4
2018-02-12T08:17:58.178Z,4.4
2018-02-12T08:18:57.942Z,4.4
2018-02-12T08:19:58.284Z,4.4
2018-02-12T08:20:58.730Z,4.4
2018-02-12T08:21:57.736Z,4.4
2018-02-12T08:22:57.821Z,4.4
2018-02-12T08:23:57.845Z,4.5
2018-02-12T08:24:57.711Z,4.5
2018-02-12T08:25:57.743Z,4.6
2018-02-12T08:26:57.590Z,4.5
2018-02-12T08:27:57.656Z,4.5
2018-02-12T08:28:57.285Z,4.6
2018-02-12T08:29:57.084Z,4.6
2018-02-12T08:30:57.669Z,4.6
2018-02-12T08:31:57.117Z,4.6
2018-02-12T08:32:57.262Z,4.6
2018-02-12T08:33:57.371Z,4.7
2018-02-12T08:34:57.269Z,4.6
2018-02-12T08:35:56.952Z,4.7
2018-02-12T08:36:56.888Z,4.7
2018-02-12T08:37:57.201Z,4.8
2018-02-12T08:38:56.949Z,4.8
2018-02-12T08:39:56.586Z,4.8
2018-02-12T08:40:56.786Z,4.8
2018-02-12T08:41:56.924Z,4.9
2018-02-12T08:42:56.440Z,4.9
2018-02-12T08:43:56.421Z,4.9
2018-02-12T08:44:56.175Z,4.9
2018-02-12T08:45:56.012Z,4.9
2018-02-12T08:46:56.309Z,4.8
2018-02-12T08:47:56.033Z,4.8
2018-02-12T08:48:55.852Z,4.8
2018-02-12T08:49:56.482Z,4.8
2018-02-12T08:50:56.005Z,4.8
2018-02-12T08:51:55.903Z,4.8
2018-02-12T08:52:55.566Z,4.8
2018-02-12T08:53:55.997Z,4.8
2018-02-12T08:54:55.520Z,4.9
2018-02-12T08:55:55.711Z,4.8
2018-02-12T08:56:55.689Z,4.8
2018-02-12T08:57:55.553Z,4.8
2018-02-12T08:58:55.373Z,4.8
2018-02-12T08:59:55.558Z,4.8
2018-02-12T09:00:55.202Z,4.8
2018-02-12T09:01:55.711Z,4.8
2018-02-12T09:02:54.972Z,4.8
2018-02-12T09:03:55.178Z,4.9
2018-02-12T09:04:55.140Z,4.9
2018-02-12T09:05:54.976Z,4.9
2018-02-12T09:06:55.013Z,4.9
2018-02-12T09:07:54.744Z,4.9
2018-02-12T09:08:54.454Z,4.9
2018-02-12T09:09:54.614Z,5
2018-02-12T09:10:54.277Z,5
2018-02-12T09:11:54.480Z,5
2018-02-12T09:12:54.284Z,5
2018-02-12T09:13:54.249Z,4.9
2018-02-12T09:14:54.380Z,4.9
2018-02-12T09:15:54.305Z,4.9
2018-02-12T09:16:54.090Z,4.9
2018-02-12T09:17:54.058Z,5
2018-02-12T09:18:54.101Z,5
2018-02-12T09:19:53.916Z,5.1
2018-02-12T09:20:54.238Z,5.1
2018-02-12T09:21:53.786Z,5.1
2018-02-12T09:22:54.246Z,5.1
2018-02-12T09:23:53.602Z,5.1
2018-02-12T09:24:53.629Z,5.1
2018-02-12T09:25:53.696Z,5.1
2018-02-12T09:26:53.836Z,5.1
2018-02-12T09:27:53.774Z,5.1
2018-02-12T09:28:53.889Z,5.1
2018-02-12T09:29:53.319Z,5.2
2018-02-12T09:30:53.270Z,5.3
2018-02-12T09:31:53.601Z,5.2
2018-02-12T09:32:54.035Z,5.2
2018-02-12T09:33:53.412Z,5.2
2018-02-12T09:34:52.780Z,5.2
2018-02-12T09:35:52.917Z,5.1
2018-02-12T09:36:52.879Z,5.2
2018-02-12T09:37:52.628Z,5.1
2018-02-12T09:38:52.703Z,5.1
2018-02-12T09:39:52.930Z,5
2018-02-12T09:40:52.628Z,5.1
2018-02-12T09:41:52.623Z,5.1
2018-02-12T09:42:52.045Z,5
2018-02-12T09:43:52.520Z,4.9
2018-02-12T09:44:51.981Z,4.8
2018-02-12T09:45:52.213Z,4.7
2018-02-12T09:46:52.351Z,4.6
2018-02-12T09:47:52.279Z,4.6
2018-02-12T09:48:52.164Z,4.7
2018-02-12T09:49:51.759Z,4.7
2018-02-12T09:50:51.664Z,4.8
2018-02-12T09:51:51.936Z,4.8
2018-02-12T09:52:52.061Z,4.8
2018-02-12T09:53:51.682Z,4.8
2018-02-12T09:54:51.325Z,4.8
2018-02-12T09:55:51.774Z,4.8
2018-02-12T09:56:51.714Z,4.8
2018-02-12T09:57:51.203Z,4.8
2018-02-12T09:58:51.783Z,4.8
2018-02-12T09:59:51.305Z,4.9
2018-02-12T10:00:51.078Z,4.9
2018-02-12T10:01:51.140Z,5
2018-02-12T10:02:51.050Z,5.1
2018-02-12T10:03:50.903Z,5.3
2018-02-12T10:04:51.066Z,5.1
2018-02-12T10:05:51.009Z,5.3
2018-02-12T10:06:50.567Z,5.4
2018-02-12T10:07:50.391Z,5.3
2018-02-12T10:08:50.662Z,5.3
2018-02-12T10:09:50.681Z,5.4
2018-02-12T10:10:50.533Z,5.3
2018-02-12T10:11:50.091Z,5.3
2018-02-12T10:12:50.677Z,5.3
2018-02-12T10:13:50.478Z,5.4
2018-02-12T10:14:50.155Z,5.5
2018-02-12T10:15:49.751Z,5.6
2018-02-12T10:16:49.797Z,5.5
2018-02-12T10:17:50.107Z,5.4
2018-02-12T10:18:50.327Z,5.4
2018-02-12T10:19:50.005Z,5.4
2018-02-12T10:20:49.898Z,5.5
2018-02-12T10:21:49.558Z,5.5
2018-02-12T10:22:49.482Z,5.5
2018-02-12T10:23:49.665Z,5.6
2018-02-12T10:24:49.472Z,5.6
2018-02-12T10:25:49.876Z,5.6
2018-02-12T10:26:49.173Z,5.5
2018-02-12T10:27:49.277Z,5.6
2018-02-12T10:28:49.068Z,5.6
2018-02-12T10:29:49.090Z,5.4
2018-02-12T10:30:49.147Z,5.3
2018-02-12T10:31:49.050Z,5.4
2018-02-12T10:32:49.439Z,5.5
2018-02-12T10:33:49.040Z,5.6
2018-02-12T10:34:48.653Z,5.5
2018-02-12T10:35:49.306Z,5.4
2018-02-12T10:36:48.624Z,5.4
2018-02-12T10:37:48.734Z,5.4
2018-02-12T10:38:49.146Z,5.3
2018-02-12T10:39:48.610Z,5.3
2018-02-12T10:40:48.335Z,5.3
2018-02-12T10:41:48.750Z,5.2
2018-02-12T10:42:48.397Z,5.1
2018-02-12T10:43:48.132Z,5
2018-02-12T10:44:48.051Z,4.9
2018-02-12T10:45:47.892Z,4.9
2018-02-12T10:46:47.939Z,5
2018-02-12T10:47:47.931Z,5.1
2018-02-12T10:48:48.043Z,5.1
2018-02-12T10:49:47.977Z,5.1
2018-02-12T10:50:47.751Z,5
2018-02-12T10:51:47.477Z,5.1
2018-02-12T10:52:47.287Z,5.1
2018-02-12T10:53:47.642Z,5.1
2018-02-12T10:54:47.600Z,5.1
2018-02-12T10:55:47.102Z,5
2018-02-12T10:56:47.328Z,5
2018-02-12T10:57:47.260Z,5.1
2018-02-12T10:58:47.351Z,4.9
2018-02-12T10:59:47.307Z,4.8
2018-02-12T11:00:46.986Z,4.8
2018-02-12T11:01:47.230Z,4.8
2018-02-12T11:02:46.842Z,4.7
2018-02-12T11:03:46.851Z,4.6
2018-02-12T11:04:46.713Z,4.6
2018-02-12T11:05:46.609Z,4.5
2018-02-12T11:06:47.112Z,4.4
2018-02-12T11:07:46.380Z,4.4
2018-02-12T11:08:46.999Z,4.2
2018-02-12T11:09:46.306Z,4.1
2018-02-12T11:10:46.495Z,4.1
2018-02-12T11:11:46.308Z,4
2018-02-12T11:12:46.833Z,4
2018-02-12T11:13:46.066Z,3.9
2018-02-12T11:14:46.299Z,3.9
2018-02-12T11:15:45.873Z,4
2018-02-12T19:50:11.892Z,7.6
2018-02-12T19:51:12.426Z,7.6
2018-02-12T19:52:11.818Z,7.6
2018-02-12T19:53:11.937Z,7.6
2018-02-12T19:54:11.614Z,7.6
2018-02-12T19:55:11.756Z,7.6
2018-02-12T19:56:11.706Z,7.6
2018-02-12T19:57:11.474Z,7.6
2018-02-12T19:58:11.580Z,7.6
2018-02-12T19:59:11.584Z,7.6
2018-02-12T20:00:11.222Z,7.6
2018-02-12T20:01:11.330Z,7.6
2018-02-12T20:02:11.567Z,7.6
2018-02-12T20:03:11.636Z,7.6
2018-02-12T20:04:11.112Z,7.6
2018-02-12T20:05:11.327Z,7.6
2018-02-12T20:06:10.666Z,7.6
2018-02-12T20:07:10.570Z,7.6
2018-02-12T20:08:10.832Z,7.5
2018-02-12T20:09:10.558Z,7.6
2018-02-12T20:10:10.426Z,7.5
2018-02-12T20:11:10.680Z,7.5
2018-02-12T20:12:10.392Z,7.5
2018-02-12T20:13:10.471Z,7.5
2018-02-12T20:14:10.269Z,7.4
2018-02-12T20:15:10.227Z,7.5
2018-02-12T20:16:09.887Z,7.4
2018-02-12T20:17:09.794Z,7.4
2018-02-12T20:18:09.715Z,7.4
2018-02-12T20:19:09.627Z,7.4
2018-02-12T20:20:09.755Z,7.4
2018-02-12T20:21:10.000Z,7.4
2018-02-12T20:22:09.339Z,7.4
2018-02-12T20:23:09.675Z,7.4
2018-02-12T20:24:09.674Z,7.4
2018-02-12T20:25:09.014Z,7.4
2018-02-12T20:26:09.065Z,7.4
2018-02-12T20:27:09.033Z,7.4
2018-02-12T20:28:09.142Z,7.4
2018-02-12T20:29:09.258Z,7.4
2018-02-12T20:30:09.177Z,7.4
2018-02-12T20:31:09.276Z,7.4
2018-02-12T20:32:08.643Z,7.4
2018-02-12T20:33:08.501Z,7.4
2018-02-12T20:34:08.770Z,7.4
2018-02-12T20:35:08.522Z,7.4
2018-02-12T20:36:08.308Z,7.5
2018-02-12T20:37:08.466Z,7.5
2018-02-12T20:38:08.176Z,7.5
2018-02-12T20:39:08.553Z,7.5
2018-02-12T20:40:08.221Z,7.5
2018-02-12T20:41:08.271Z,7.5
2018-02-12T20:42:08.115Z,7.5
2018-02-12T20:43:07.771Z,7.5
2018-02-12T20:44:07.858Z,7.6
2018-02-12T20:45:07.937Z,7.6
2018-02-12T20:46:08.048Z,7.6
2018-02-12T20:47:07.737Z,7.6
2018-02-12T20:48:07.280Z,7.6
2018-02-12T20:49:07.377Z,7.6
2018-02-12T20:50:07.637Z,7.6
2018-02-12T20:51:07.671Z,7.6
2018-02-12T20:52:07.161Z,7.6
2018-02-12T20:53:07.242Z,7.6
2018-02-12T20:54:07.310Z,7.7
2018-02-12T20:55:06.961Z,7.6
2018-02-12T20:56:07.027Z,7.7
2018-02-12T20:57:07.064Z,7.6
2018-02-12T20:58:06.905Z,7.7
2018-02-12T20:59:06.762Z,7.7
2018-02-12T21:00:07.120Z,7.7
2018-02-12T21:01:06.734Z,7.7
2018-02-12T21:02:06.777Z,7.7
2018-02-12T21:03:06.398Z,7.7
2018-02-12T21:04:06.235Z,7.7
2018-02-12T21:05:06.023Z,7.7
2018-02-12T21:06:06.219Z,7.7
2018-02-12T21:07:06.522Z,7.7
2018-02-12T21:08:06.176Z,7.7
2018-02-12T21:09:05.824Z,7.7
2018-02-12T21:10:05.966Z,7.7
2018-02-12T21:11:05.642Z,7.7
2018-02-12T21:12:05.765Z,7.7
2018-02-12T21:13:05.704Z,7.7
2018-02-12T21:14:06.009Z,7.7
2018-02-12T21:15:05.620Z,7.6
2018-02-12T21:16:05.389Z,7.6
2018-02-12T21:17:05.307Z,7.6
2018-02-12T21:18:05.350Z,7.6
2018-02-12T21:19:05.526Z,7.6
2018-02-12T21:20:05.354Z,7.6
2018-02-12T21:21:05.088Z,7.6
2018-02-12T21:22:05.167Z,7.6
2018-02-12T21:23:05.391Z,7.6
2018-02-12T21:24:05.283Z,7.6
2018-02-12T21:25:04.788Z,7.6
2018-02-12T21:26:05.100Z,7.6
2018-02-12T21:27:04.696Z,7.6
2018-02-12T21:28:04.927Z,7.6
2018-02-12T21:29:04.620Z,7.6
2018-02-12T21:30:04.830Z,7.6
2018-02-12T21:31:04.904Z,7.6
2018-02-12T21:32:04.138Z,7.6
2018-02-12T21:33:04.352Z,7.6
2018-02-12T21:34:04.293Z,7.6
2018-02-12T21:35:04.448Z,7.6
2018-02-12T21:36:03.921Z,7.6
2018-02-12T21:37:04.242Z,7.6
2018-02-12T21:38:04.038Z,7.6
2018-02-12T21:39:04.127Z,7.6
2018-02-12T21:40:03.990Z,7.6
2018-02-12T21:41:03.730Z,7.6
2018-02-12T21:42:04.202Z,7.6
2018-02-12T21:43:03.384Z,7.6
2018-02-12T21:44:03.666Z,7.5
2018-02-12T21:45:03.853Z,7.6
2018-02-12T21:46:03.350Z,7.5
2018-02-12T21:47:03.159Z,7.5
2018-02-12T21:48:03.323Z,7.5
2018-02-12T21:49:03.327Z,7.5
2018-02-12T21:50:04.272Z,7.5
2018-02-12T21:51:03.342Z,7.5
2018-02-12T21:52:02.819Z,7.5
2018-02-12T21:53:02.838Z,7.5
2018-02-12T21:54:02.649Z,7.5
2018-02-12T21:55:02.973Z,7.5
2018-02-12T21:56:02.810Z,7.5
2018-02-12T21:57:02.538Z,7.4
2018-02-12T21:58:02.250Z,7.5
2018-02-12T21:59:02.539Z,7.4
2018-02-12T22:00:02.856Z,7.4
2018-02-12T22:01:02.151Z,7.4
2018-02-12T22:02:02.234Z,7.4
2018-02-12T22:03:02.058Z,7.4
2018-02-12T22:04:02.339Z,7.4
2018-02-12T22:05:02.282Z,7.4
2018-02-12T22:06:01.997Z,7.4
2018-02-12T22:07:02.032Z,7.4
2018-02-12T22:08:01.567Z,7.4
2018-02-12T22:09:01.554Z,7.4
2018-02-12T22:10:01.738Z,7.4
2018-02-12T22:11:01.772Z,7.4
2018-02-12T22:12:01.359Z,7.4
2018-02-12T22:13:01.564Z,7.3
2018-02-12T22:14:01.784Z,7.3
2018-02-12T22:15:01.474Z,7.3
2018-02-12T22:16:01.494Z,7.3
2018-02-12T22:17:01.287Z,7.3
2018-02-12T22:18:01.177Z,7.3
2018-02-12T22:19:01.414Z,7.3
2018-02-12T22:20:01.186Z,7.3